F/V Pedro Jose Berri — EDYX — position and weather

sailwx.info

Track history (hours):
 
Tides and Currents Weather Stations Pressure Air Temp Water Temp Dewpoint Dewpoint Depression Visibility Wind Speed Wind Dir Waves Ship Positions

F/V Pedro Jose Berri

Last reported at 2018-May-19 07:38 UTC. Time now 2018-May-20 17:47 UTC.
Position N 43°18' W 002°12'.

Length 34 m.

Type: Fishing. MMSI: 224052460.

Date/timePositionNaut miles runAvg speedWind from/ knotsBaromVisibWave heightAir tempDewpointWater temp
2018-May-19 07:38N 43°18' W 002°12'0 1.2
2018-May-19 07:29N 43°18' W 002°12'2 3.2
2018-May-19 07:00N 43°20' W 002°11'2 3.1
2018-May-19 06:30N 43°18' W 002°12'3 0.2
2018-May-18 14:00N 43°17' W 002°08'0 0.0
2018-May-18 05:25N 43°17' W 002°08'0 0.8
2018-May-18 04:55N 43°17' W 002°08'2 5.0
2018-May-18 04:31N 43°18' W 002°10'2 0.2
2018-May-17 18:50N 43°18' W 002°12'0 0.0
2018-May-17 18:27N 43°18' W 002°12'0 0.0
2018-May-17 17:34N 43°18' W 002°12'0 0.0
2018-May-17 17:26N 43°18' W 002°12'0 0.0
2018-May-17 15:40N 43°18' W 002°12'0 0.0
2018-May-17 15:25N 43°18' W 002°12'2 4.3
2018-May-17 15:00N 43°20' W 002°12'510.7
2018-May-17 14:30N 43°24' W 002°17'4 7.3
2018-May-17 14:00N 43°27' W 002°19'0 0.4
2018-May-17 13:30N 43°28' W 002°19'0 0.2
2018-May-17 13:00N 43°28' W 002°19'1 1.6
2018-May-17 12:31N 43°28' W 002°21'3 5.0
2018-May-17 12:00N 43°29' W 002°23'0 0.2
2018-May-17 11:30N 43°29' W 002°23'0 0.5
2018-May-17 11:00N 43°30' W 002°24'0 0.3
2018-May-17 10:31N 43°30' W 002°24'0 0.4
2018-May-17 10:00N 43°30' W 002°24'2 3.6
2018-May-17 09:30N 43°31' W 002°25'5 9.3
2018-May-17 09:00N 43°33' W 002°31'5 9.6
2018-May-17 08:30N 43°34' W 002°38'3 6.5
2018-May-17 08:00N 43°35' W 002°42'0 0.2
2018-May-17 07:30N 43°35' W 002°42'1 1.1
2018-May-17 07:01N 43°34' W 002°42'4 7.8
2018-May-17 06:30N 43°34' W 002°37'1 2.3
2018-May-17 06:00N 43°33' W 002°36'0 0.2
2018-May-17 05:30N 43°33' W 002°36'1 1.2
2018-May-17 05:01N 43°34' W 002°35'3 5.7
2018-May-17 04:30N 43°32' W 002°32'0 0.5
2018-May-17 04:01N 43°32' W 002°32'0 0.2
2018-May-17 03:31N 43°32' W 002°32'2 3.7
2018-May-17 03:00N 43°30' W 002°32'2 4.2
2018-May-17 02:30N 43°29' W 002°30'1 1.6
2018-May-17 02:01N 43°28' W 002°31'2 4.7
2018-May-17 01:30N 43°26' W 002°29'0 0.3
2018-May-17 01:00N 43°26' W 002°29'0 0.3
2018-May-17 00:31N 43°26' W 002°30'1 1.9
2018-May-17 00:01N 43°26' W 002°31'1 1.5
2018-May-16 23:30N 43°25' W 002°30'0 0.3
2018-May-16 23:00N 43°25' W 002°30'2 3.1
2018-May-16 22:30N 43°25' W 002°32'4 8.5
2018-May-16 22:00N 43°27' W 002°37'5 9.7
2018-May-16 21:30N 43°29' W 002°43'5 9.5
2018-May-16 21:00N 43°31' W 002°49'510.3
2018-May-16 20:30N 43°31' W 002°56'8 9.9
2018-May-16 19:40N 43°31' W 003°08'210.0
2018-May-16 19:30N 43°31' W 003°10'510.0
2018-May-16 19:00N 43°31' W 003°17'5 9.8
2018-May-16 18:30N 43°32' W 003°24'1 1.8
2018-May-16 17:41N 43°32' W 003°22'0 0.2
2018-May-16 17:30N 43°32' W 003°22'2 3.2
2018-May-16 17:00N 43°32' W 003°20'510.0
2018-May-16 16:30N 43°31' W 003°13'510.5
2018-May-16 16:00N 43°31' W 003°06'510.6
2018-May-16 15:30N 43°31' W 002°58'510.0
2018-May-16 15:00N 43°31' W 002°51'4 9.2
2018-May-16 14:30N 43°31' W 002°45'4 8.5
2018-May-16 14:00N 43°29' W 002°40'4 8.6
2018-May-16 13:30N 43°27' W 002°34'5 9.1
2018-May-16 13:00N 43°26' W 002°29'4 8.5
2018-May-16 12:30N 43°23' W 002°25'4 8.8
2018-May-16 12:00N 43°21' W 002°19'4 8.8
2018-May-16 11:30N 43°19' W 002°13'1 0.6
2018-May-16 09:10N 43°18' W 002°12'0 0.6
2018-May-16 08:52N 43°18' W 002°12'2 4.2
2018-May-16 08:30N 43°20' W 002°13'4 7.1
2018-May-16 08:00N 43°21' W 002°17'4 7.3
2018-May-16 07:30N 43°23' W 002°22'4 7.2
2018-May-16 07:00N 43°24' W 002°26'4 7.2
2018-May-16 06:30N 43°25' W 002°31'4 7.3
2018-May-16 06:00N 43°27' W 002°35'4 7.2
2018-May-16 05:30N 43°29' W 002°40'4 7.7
2018-May-16 05:00N 43°30' W 002°45'2 3.3
2018-May-16 04:31N 43°30' W 002°47'0 0.7
2018-May-16 04:00N 43°30' W 002°47'0 0.2
2018-May-16 03:30N 43°30' W 002°48'2 3.3
2018-May-16 03:00N 43°30' W 002°45'0 0.1
2018-May-16 02:00N 43°30' W 002°45'1 3.0
2018-May-16 01:30N 43°32' W 002°46'1 1.1
2018-May-16 01:00N 43°32' W 002°46'1 1.0
2018-May-16 00:30N 43°32' W 002°47'0 1.0
2018-May-16 00:00N 43°32' W 002°48'3 6.9
2018-May-15 23:30N 43°33' W 002°52'610.0
2018-May-15 22:55N 43°34' W 003°00'410.0
2018-May-15 22:30N 43°35' W 003°06'2 3.0
2018-May-15 22:00N 43°36' W 003°08'0 0.8
2018-May-15 21:30N 43°36' W 003°08'0 0.9
2018-May-15 21:00N 43°36' W 003°09'3 5.1
2018-May-15 20:30N 43°34' W 003°08'2 3.5
2018-May-15 19:57N 43°32' W 003°08'4 9.0
2018-May-15 19:30N 43°36' W 003°10'3 4.9
2018-May-15 18:59N 43°35' W 003°13'1 1.7
2018-May-15 18:25N 43°34' W 003°12'0 0.4
2018-May-15 17:35N 43°34' W 003°12'0 1.9
2018-May-15 17:28N 43°34' W 003°12'3 6.0
2018-May-15 16:59N 43°34' W 003°08'4 8.0
2018-May-15 16:30N 43°34' W 003°03'5 9.1
2018-May-15 16:00N 43°34' W 002°56'3 6.6
2018-May-15 15:30N 43°34' W 002°52'3 5.3
2018-May-15 15:00N 43°32' W 002°52'3 6.3
2018-May-15 14:29N 43°31' W 002°48'3 6.6
2018-May-15 14:00N 43°33' W 002°44'4 7.3
2018-May-15 13:31N 43°35' W 002°40'4 6.9
2018-May-15 13:00N 43°35' W 002°35'2 4.0
2018-May-15 12:30N 43°33' W 002°36'4 8.4
2018-May-15 12:00N 43°33' W 002°42'4 8.1
2018-May-15 11:30N 43°29' W 002°42'3 6.9
2018-May-15 11:01N 43°25' W 002°43'0 0.3
2018-May-15 10:30N 43°25' W 002°43'0 0.0
2018-May-15 09:58N 43°25' W 002°43'0 0.6
2018-May-15 09:30N 43°25' W 002°43'5 9.8
2018-May-15 09:00N 43°29' W 002°38'5 9.1
2018-May-15 08:31N 43°33' W 002°35'0 0.7
2018-May-15 08:00N 43°33' W 002°35'1 2.3
2018-May-15 07:30N 43°32' W 002°34'3 5.4
2018-May-15 07:01N 43°33' W 002°37'0 0.1
2018-May-15 06:30N 43°33' W 002°37'0 0.5
2018-May-15 06:00N 43°33' W 002°37'0 0.7
2018-May-15 05:30N 43°33' W 002°38'2 5.0
2018-May-15 05:00N 43°33' W 002°41'0 0.8
2018-May-15 04:30N 43°33' W 002°41'0 0.5
2018-May-15 04:01N 43°33' W 002°41'1 1.7
2018-May-15 03:30N 43°32' W 002°42'1 2.0
2018-May-15 03:00N 43°32' W 002°43'0 0.8
2018-May-15 02:31N 43°32' W 002°43'0 0.6
2018-May-15 02:00N 43°33' W 002°43'4 7.5
2018-May-15 01:30N 43°34' W 002°48'0 0.9
2018-May-15 01:00N 43°34' W 002°49'0 1.0
2018-May-15 00:30N 43°34' W 002°49'1 1.0
2018-May-15 00:00N 43°34' W 002°50'1 1.6
2018-May-14 23:31N 43°34' W 002°50'4 7.8
2018-May-14 23:00N 43°32' W 002°45'4 7.7
2018-May-14 22:30N 43°31' W 002°40'4 7.8
2018-May-14 22:00N 43°28' W 002°37'4 7.8
2018-May-14 21:30N 43°25' W 002°33'4 8.2
2018-May-14 21:00N 43°23' W 002°28'4 7.7
2018-May-14 20:30N 43°20' W 002°25'0 0.1
2018-May-14 18:44N 43°20' W 002°25'311.4
2018-May-14 18:30N 43°22' W 002°28'611.4
2018-May-14 18:00N 43°25' W 002°34'611.8
2018-May-14 17:30N 43°29' W 002°41'611.3
2018-May-14 17:00N 43°32' W 002°47'2 4.0
2018-May-14 16:30N 43°33' W 002°49'0 0.2
2018-May-14 16:00N 43°33' W 002°49'0 0.8
2018-May-14 15:30N 43°33' W 002°49'1 2.6
2018-May-14 15:01N 43°33' W 002°47'3 5.0
2018-May-14 14:30N 43°31' W 002°49'0 0.2
2018-May-14 13:30N 43°31' W 002°49'0 0.4
2018-May-14 13:00N 43°31' W 002°49'0 0.5
2018-May-14 12:30N 43°31' W 002°49'0 0.5
2018-May-14 12:00N 43°31' W 002°49'2 3.1
2018-May-14 11:31N 43°31' W 002°51'1 1.3
2018-May-14 11:00N 43°32' W 002°52'0 0.8
2018-May-14 10:30N 43°32' W 002°52'2 4.2
2018-May-14 10:00N 43°34' W 002°54'4 8.3
2018-May-14 09:30N 43°34' W 002°60'510.7
2018-May-14 09:00N 43°34' W 003°07'610.7
2018-May-14 08:29N 43°34' W 003°15'5 9.5
2018-May-14 08:01N 43°30' W 003°14'1 1.9
2018-May-14 07:31N 43°31' W 003°13'1 1.9
2018-May-14 07:01N 43°30' W 003°12'2 3.1
2018-May-14 06:30N 43°31' W 003°14'5 9.6
2018-May-14 06:00N 43°28' W 003°20'5 9.9
2018-May-14 05:30N 43°26' W 003°26'  
2018-May-10 13:52N 43°26' W 003°28'2 5.8
2018-May-10 13:27N 43°28' W 003°26'510.5
2018-May-10 13:00N 43°31' W 003°31'15 0.7
2018-May-09 14:17N 43°34' W 003°52'6 9.7
2018-May-09 13:40N 43°34' W 003°44'2 9.9
2018-May-09 13:30N 43°33' W 003°41'5 9.8
2018-May-09 13:00N 43°32' W 003°35'5 9.9
2018-May-09 12:30N 43°30' W 003°29'5 9.2
2018-May-09 12:00N 43°26' W 003°25'1 0.2
2018-May-09 09:03N 43°25' W 003°25'010.4
2018-May-09 09:00N 43°26' W 003°25'5 9.9
2018-May-09 08:30N 43°30' W 003°29'  
Track history (hours):
 
Tides and Currents Weather Stations Pressure Air Temp Water Temp Dewpoint Dewpoint Depression Visibility Wind Speed Wind Dir Waves Ship Positions

F/V Pedro Jose Berri

Last reported at 2018-May-19 07:38 UTC. Time now 2018-May-20 17:47 UTC.
Position N 43°18' W 002°12'.

Length 34 m.

Type: Fishing. MMSI: 224052460.

Date/timePositionNaut miles runAvg speedWind from/ knotsBaromVisibWave heightAir tempDewpointWater temp
2018-May-19 07:38N 43°18' W 002°12'0 1.2
2018-May-19 07:29N 43°18' W 002°12'2 3.2
2018-May-19 07:00N 43°20' W 002°11'2 3.1
2018-May-19 06:30N 43°18' W 002°12'3 0.2
2018-May-18 14:00N 43°17' W 002°08'0 0.0
2018-May-18 05:25N 43°17' W 002°08'0 0.8
2018-May-18 04:55N 43°17' W 002°08'2 5.0
2018-May-18 04:31N 43°18' W 002°10'2 0.2
2018-May-17 18:50N 43°18' W 002°12'0 0.0
2018-May-17 18:27N 43°18' W 002°12'0 0.0
2018-May-17 17:34N 43°18' W 002°12'0 0.0
2018-May-17 17:26N 43°18' W 002°12'0 0.0
2018-May-17 15:40N 43°18' W 002°12'0 0.0
2018-May-17 15:25N 43°18' W 002°12'2 4.3
2018-May-17 15:00N 43°20' W 002°12'510.7
2018-May-17 14:30N 43°24' W 002°17'4 7.3
2018-May-17 14:00N 43°27' W 002°19'0 0.4
2018-May-17 13:30N 43°28' W 002°19'0 0.2
2018-May-17 13:00N 43°28' W 002°19'1 1.6
2018-May-17 12:31N 43°28' W 002°21'3 5.0
2018-May-17 12:00N 43°29' W 002°23'0 0.2
2018-May-17 11:30N 43°29' W 002°23'0 0.5
2018-May-17 11:00N 43°30' W 002°24'0 0.3
2018-May-17 10:31N 43°30' W 002°24'0 0.4
2018-May-17 10:00N 43°30' W 002°24'2 3.6
2018-May-17 09:30N 43°31' W 002°25'5 9.3
2018-May-17 09:00N 43°33' W 002°31'5 9.6
2018-May-17 08:30N 43°34' W 002°38'3 6.5
2018-May-17 08:00N 43°35' W 002°42'0 0.2
2018-May-17 07:30N 43°35' W 002°42'1 1.1
2018-May-17 07:01N 43°34' W 002°42'4 7.8
2018-May-17 06:30N 43°34' W 002°37'1 2.3
2018-May-17 06:00N 43°33' W 002°36'0 0.2
2018-May-17 05:30N 43°33' W 002°36'1 1.2
2018-May-17 05:01N 43°34' W 002°35'3 5.7
2018-May-17 04:30N 43°32' W 002°32'0 0.5
2018-May-17 04:01N 43°32' W 002°32'0 0.2
2018-May-17 03:31N 43°32' W 002°32'2 3.7
2018-May-17 03:00N 43°30' W 002°32'2 4.2
2018-May-17 02:30N 43°29' W 002°30'1 1.6
2018-May-17 02:01N 43°28' W 002°31'2 4.7
2018-May-17 01:30N 43°26' W 002°29'0 0.3
2018-May-17 01:00N 43°26' W 002°29'0 0.3
2018-May-17 00:31N 43°26' W 002°30'1 1.9
2018-May-17 00:01N 43°26' W 002°31'1 1.5
2018-May-16 23:30N 43°25' W 002°30'0 0.3
2018-May-16 23:00N 43°25' W 002°30'2 3.1
2018-May-16 22:30N 43°25' W 002°32'4 8.5
2018-May-16 22:00N 43°27' W 002°37'5 9.7
2018-May-16 21:30N 43°29' W 002°43'5 9.5
2018-May-16 21:00N 43°31' W 002°49'510.3
2018-May-16 20:30N 43°31' W 002°56'8 9.9
2018-May-16 19:40N 43°31' W 003°08'210.0
2018-May-16 19:30N 43°31' W 003°10'510.0
2018-May-16 19:00N 43°31' W 003°17'5 9.8
2018-May-16 18:30N 43°32' W 003°24'1 1.8
2018-May-16 17:41N 43°32' W 003°22'0 0.2
2018-May-16 17:30N 43°32' W 003°22'2 3.2
2018-May-16 17:00N 43°32' W 003°20'510.0
2018-May-16 16:30N 43°31' W 003°13'510.5
2018-May-16 16:00N 43°31' W 003°06'510.6
2018-May-16 15:30N 43°31' W 002°58'510.0
2018-May-16 15:00N 43°31' W 002°51'4 9.2
2018-May-16 14:30N 43°31' W 002°45'4 8.5
2018-May-16 14:00N 43°29' W 002°40'4 8.6
2018-May-16 13:30N 43°27' W 002°34'5 9.1
2018-May-16 13:00N 43°26' W 002°29'4 8.5
2018-May-16 12:30N 43°23' W 002°25'4 8.8
2018-May-16 12:00N 43°21' W 002°19'4 8.8
2018-May-16 11:30N 43°19' W 002°13'1 0.6
2018-May-16 09:10N 43°18' W 002°12'0 0.6
2018-May-16 08:52N 43°18' W 002°12'2 4.2
2018-May-16 08:30N 43°20' W 002°13'4 7.1
2018-May-16 08:00N 43°21' W 002°17'4 7.3
2018-May-16 07:30N 43°23' W 002°22'4 7.2
2018-May-16 07:00N 43°24' W 002°26'4 7.2
2018-May-16 06:30N 43°25' W 002°31'4 7.3
2018-May-16 06:00N 43°27' W 002°35'4 7.2
2018-May-16 05:30N 43°29' W 002°40'4 7.7
2018-May-16 05:00N 43°30' W 002°45'2 3.3
2018-May-16 04:31N 43°30' W 002°47'0 0.7
2018-May-16 04:00N 43°30' W 002°47'0 0.2
2018-May-16 03:30N 43°30' W 002°48'2 3.3
2018-May-16 03:00N 43°30' W 002°45'0 0.1
2018-May-16 02:00N 43°30' W 002°45'1 3.0
2018-May-16 01:30N 43°32' W 002°46'1 1.1
2018-May-16 01:00N 43°32' W 002°46'1 1.0
2018-May-16 00:30N 43°32' W 002°47'0 1.0
2018-May-16 00:00N 43°32' W 002°48'3 6.9
2018-May-15 23:30N 43°33' W 002°52'610.0
2018-May-15 22:55N 43°34' W 003°00'410.0
2018-May-15 22:30N 43°35' W 003°06'2 3.0
2018-May-15 22:00N 43°36' W 003°08'0 0.8
2018-May-15 21:30N 43°36' W 003°08'0 0.9
2018-May-15 21:00N 43°36' W 003°09'3 5.1
2018-May-15 20:30N 43°34' W 003°08'2 3.5
2018-May-15 19:57N 43°32' W 003°08'4 9.0
2018-May-15 19:30N 43°36' W 003°10'3 4.9
2018-May-15 18:59N 43°35' W 003°13'1 1.7
2018-May-15 18:25N 43°34' W 003°12'0 0.4
2018-May-15 17:35N 43°34' W 003°12'0 1.9
2018-May-15 17:28N 43°34' W 003°12'3 6.0
2018-May-15 16:59N 43°34' W 003°08'4 8.0
2018-May-15 16:30N 43°34' W 003°03'5 9.1
2018-May-15 16:00N 43°34' W 002°56'3 6.6
2018-May-15 15:30N 43°34' W 002°52'3 5.3
2018-May-15 15:00N 43°32' W 002°52'3 6.3
2018-May-15 14:29N 43°31' W 002°48'3 6.6
2018-May-15 14:00N 43°33' W 002°44'4 7.3
2018-May-15 13:31N 43°35' W 002°40'4 6.9
2018-May-15 13:00N 43°35' W 002°35'2 4.0
2018-May-15 12:30N 43°33' W 002°36'4 8.4
2018-May-15 12:00N 43°33' W 002°42'4 8.1
2018-May-15 11:30N 43°29' W 002°42'3 6.9
2018-May-15 11:01N 43°25' W 002°43'0 0.3
2018-May-15 10:30N 43°25' W 002°43'0 0.0
2018-May-15 09:58N 43°25' W 002°43'0 0.6
2018-May-15 09:30N 43°25' W 002°43'5 9.8
2018-May-15 09:00N 43°29' W 002°38'5 9.1
2018-May-15 08:31N 43°33' W 002°35'0 0.7
2018-May-15 08:00N 43°33' W 002°35'1 2.3
2018-May-15 07:30N 43°32' W 002°34'3 5.4
2018-May-15 07:01N 43°33' W 002°37'0 0.1
2018-May-15 06:30N 43°33' W 002°37'0 0.5
2018-May-15 06:00N 43°33' W 002°37'0 0.7
2018-May-15 05:30N 43°33' W 002°38'2 5.0
2018-May-15 05:00N 43°33' W 002°41'0 0.8
2018-May-15 04:30N 43°33' W 002°41'0 0.5
2018-May-15 04:01N 43°33' W 002°41'1 1.7
2018-May-15 03:30N 43°32' W 002°42'1 2.0
2018-May-15 03:00N 43°32' W 002°43'0 0.8
2018-May-15 02:31N 43°32' W 002°43'0 0.6
2018-May-15 02:00N 43°33' W 002°43'4 7.5
2018-May-15 01:30N 43°34' W 002°48'0 0.9
2018-May-15 01:00N 43°34' W 002°49'0 1.0
2018-May-15 00:30N 43°34' W 002°49'1 1.0
2018-May-15 00:00N 43°34' W 002°50'1 1.6
2018-May-14 23:31N 43°34' W 002°50'4 7.8
2018-May-14 23:00N 43°32' W 002°45'4 7.7
2018-May-14 22:30N 43°31' W 002°40'4 7.8
2018-May-14 22:00N 43°28' W 002°37'4 7.8
2018-May-14 21:30N 43°25' W 002°33'4 8.2
2018-May-14 21:00N 43°23' W 002°28'4 7.7
2018-May-14 20:30N 43°20' W 002°25'0 0.1
2018-May-14 18:44N 43°20' W 002°25'311.4
2018-May-14 18:30N 43°22' W 002°28'611.4
2018-May-14 18:00N 43°25' W 002°34'611.8
2018-May-14 17:30N 43°29' W 002°41'611.3
2018-May-14 17:00N 43°32' W 002°47'2 4.0
2018-May-14 16:30N 43°33' W 002°49'0 0.2
2018-May-14 16:00N 43°33' W 002°49'0 0.8
2018-May-14 15:30N 43°33' W 002°49'1 2.6
2018-May-14 15:01N 43°33' W 002°47'3 5.0
2018-May-14 14:30N 43°31' W 002°49'0 0.2
2018-May-14 13:30N 43°31' W 002°49'0 0.4
2018-May-14 13:00N 43°31' W 002°49'0 0.5
2018-May-14 12:30N 43°31' W 002°49'0 0.5
2018-May-14 12:00N 43°31' W 002°49'2 3.1
2018-May-14 11:31N 43°31' W 002°51'1 1.3
2018-May-14 11:00N 43°32' W 002°52'0 0.8
2018-May-14 10:30N 43°32' W 002°52'2 4.2
2018-May-14 10:00N 43°34' W 002°54'4 8.3
2018-May-14 09:30N 43°34' W 002°60'510.7
2018-May-14 09:00N 43°34' W 003°07'610.7
2018-May-14 08:29N 43°34' W 003°15'5 9.5
2018-May-14 08:01N 43°30' W 003°14'1 1.9
2018-May-14 07:31N 43°31' W 003°13'1 1.9
2018-May-14 07:01N 43°30' W 003°12'2 3.1
2018-May-14 06:30N 43°31' W 003°14'5 9.6
2018-May-14 06:00N 43°28' W 003°20'5 9.9
2018-May-14 05:30N 43°26' W 003°26'  
2018-May-10 13:52N 43°26' W 003°28'2 5.8
2018-May-10 13:27N 43°28' W 003°26'510.5
2018-May-10 13:00N 43°31' W 003°31'15 0.7
2018-May-09 14:17N 43°34' W 003°52'6 9.7
2018-May-09 13:40N 43°34' W 003°44'2 9.9
2018-May-09 13:30N 43°33' W 003°41'5 9.8
2018-May-09 13:00N 43°32' W 003°35'5 9.9
2018-May-09 12:30N 43°30' W 003°29'5 9.2
2018-May-09 12:00N 43°26' W 003°25'1 0.2
2018-May-09 09:03N 43°25' W 003°25'010.4
2018-May-09 09:00N 43°26' W 003°25'5 9.9
2018-May-09 08:30N 43°30' W 003°29'  

Dump ship's entire track history